• Join FlightAware (Why Join?)
  • Login
  • US Flag 
01:35PM EDT


 

Airport Tracker/Info


-or-


 

Live Flight TrackerFlight Track Log ✈ TAI570 ✈ 01-May-2013 ✈ MSLP / SAL - KJFK

Flight Track Log - Related Links

Times and Time Zones

All times are in EDT time to prevent confusion due to time zone crossing. See the TAI570 flight status page for this flight to view local times or setup timezone preferences in your user account.

Time Position Orientation Groundspeed Altitude Reporting Facility
EDT Latitude Longitude Course Direction KTS MPH feet Rate Location/Type
06:30PM 13.4090 -89.1740 291° West 217 250 3,500  Level FlightAware
06:31PM 13.4170 -89.1960 290° West 217 250 3,500 960 Level FlightAware
06:31PM 13.4660 -89.1770 21° North 279 321 4,400 1,860 Climbing FlightAware
06:32PM 13.4970 -89.1510 39° Northeast 284 327 5,400 2,160 Climbing FlightAware
06:32PM 13.5210 -89.1270 44° Northeast 283 326 6,400 2,400 Climbing FlightAware
06:32PM 13.5460 -89.1070 38° Northeast 278 320 7,400 2,400 Climbing FlightAware
06:33PM 13.5660 -89.0990 21° North 279 321 8,000 1,980 Climbing FlightAware
06:33PM 13.5830 -89.0930 19° North 280 322 8,400 1,680 Climbing FlightAware
06:33PM 13.6210 -89.0800 18° North 286 329 9,300 1,800 Climbing FlightAware
06:34PM 13.6330 -89.0760 18° North 287 330 9,600 1,500 Climbing FlightAware
06:34PM 13.6920 -89.0550 19° North 305 351 10,700 1,500 Climbing FlightAware
06:35PM 13.7470 -89.0350 19° North 312 359 11,800 1,620 Climbing FlightAware
06:36PM 13.8080 -89.0150 18° North 321 369 13,000 1,680 Climbing FlightAware
06:36PM 13.8640 -88.9970 17° North 323 372 14,200 1,440 Climbing FlightAware
06:37PM 13.9300 -88.9750 18° North 337 388 15,100 1,380 Climbing FlightAware
06:38PM 13.9910 -88.9540 18° North 340 391 16,200 1,560 Climbing FlightAware
06:39PM 14.0500 -88.9340 18° North 340 391 17,200 1,320 Climbing FlightAware
06:39PM 14.1200 -88.9100 18° North 342 394 18,100 1,260 Climbing FlightAware
06:40PM 14.1730 -88.8920 18° North 344 396 18,900 1,200 Climbing FlightAware
06:41PM 14.2360 -88.8700 19° North 358 412 19,600 960 Climbing FlightAware
06:41PM 14.3000 -88.8490 18° North 361 415 20,200 660 Climbing FlightAware
06:42PM 14.3740 -88.8230 19° North 389 448 20,600 480 Climbing FlightAware
06:43PM 14.4450 -88.7990 18° North 408 470 20,900 420 Climbing FlightAware
06:43PM 14.5280 -88.7700 19° North 426 490 21,200 180 Climbing FlightAware
06:44PM 14.5990 -88.7460 18° North 425 489 21,200  Level FlightAware
06:45PM 14.6630 -88.7250 18° North 425 489 21,200  Level FlightAware
06:45PM 14.7260 -88.7040 18° North 425 489 21,200  Level FlightAware
06:46PM 14.7900 -88.6820 18° North 425 489 21,200  Level FlightAware
06:47PM 14.8700 -88.6560 17° North 425 489 21,200  Level FlightAware
06:48PM 14.9330 -88.6340 19° North 425 489 21,200 120 Level FlightAware
06:50PM 15.1597 -88.5302 24° Northeast  Level Estimated
06:51PM 15.2750 -88.4773 24° Northeast  Level Estimated
06:52PM 15.3902 -88.4244 24° Northeast  Level Estimated
06:53PM 15.5055 -88.3714 24° Northeast  Level Estimated
06:54PM 15.6207 -88.3184 24° Northeast  Level Estimated
06:55PM 15.7359 -88.2653 24° Northeast  Level Estimated
06:56PM 15.8511 -88.2121 24° Northeast  Level Estimated
06:57PM 15.9663 -88.1589 24° Northeast  Level Estimated
06:58PM 16.0815 -88.1056 24° Northeast  Level Estimated
06:59PM 16.1966 -88.0523 24° Northeast  Level Estimated
07:00PM 16.3118 -87.9989 24° Northeast  Level Estimated
07:01PM 16.4269 -87.9454 24° Northeast  Level Estimated
07:02PM 16.5420 -87.8919 24° Northeast  Level Estimated
07:03PM 16.6571 -87.8383 24° Northeast  Level Estimated
07:04PM 16.7722 -87.7846 24° Northeast  Level Estimated
07:05PM 16.8873 -87.7309 24° Northeast  Level Estimated
07:06PM 17.0024 -87.6771 24° Northeast  Level Estimated
07:07PM 17.1174 -87.6233 24° Northeast  Level Estimated
07:08PM 17.2325 -87.5693 24° Northeast  Level Estimated
07:09PM 17.3475 -87.5154 24° Northeast  Level Estimated
07:10PM 17.4625 -87.4613 24° Northeast  Level Estimated
07:11PM 17.5775 -87.4072 24° Northeast  Level Estimated
07:12PM 17.6925 -87.3530 24° Northeast  Level Estimated
07:13PM 17.8074 -87.2987 24° Northeast  Level Estimated
07:14PM 17.9224 -87.2444 24° Northeast  Level Estimated
07:15PM 18.0373 -87.1900 24° Northeast  Level Estimated
07:16PM 18.1522 -87.1355 24° Northeast  Level Estimated
07:17PM 18.2671 -87.0809 24° Northeast  Level Estimated
07:18PM 18.3820 -87.0263 24° Northeast  Level Estimated
07:19PM 18.4969 -86.9716 24° Northeast  Level Estimated
07:20PM 18.6117 -86.9168 24° Northeast  Level Estimated
07:21PM 18.7266 -86.8620 24° Northeast  Level Estimated
07:22PM 18.8414 -86.8071 24° Northeast  Level Estimated
07:23PM 18.9562 -86.7521 24° Northeast  Level Estimated
07:24PM 19.0710 -86.6970 24° Northeast  Level Estimated
07:25PM 19.1858 -86.6419 24° Northeast  Level Estimated
07:26PM 19.3006 -86.5867 24° Northeast  Level Estimated
07:27PM 19.4153 -86.5314 24° Northeast  Level Estimated
07:28PM 19.5300 -86.4760 24° Northeast  Level Estimated
07:29PM 19.6447 -86.4206 24° Northeast  Level Estimated
07:30PM 19.7594 -86.3650 24° Northeast  Level Estimated
07:31PM 19.8741 -86.3094 25° Northeast  Level Estimated
07:32PM 19.9888 -86.2537 25° Northeast  Level Estimated
07:33PM 20.1034 -86.1980 25° Northeast  Level Estimated
07:34PM 20.2180 -86.1421 25° Northeast  Level Estimated
07:35PM 20.3326 -86.0862 25° Northeast  Level Estimated
07:36PM 20.4472 -86.0301 25° Northeast  Level Estimated
07:37PM 20.5573 -85.9762 25° Northeast  Level Estimated
07:38PM 20.6674 -85.9222 25° Northeast  Level Estimated
07:39PM 20.7774 -85.8682 25° Northeast  Level Estimated
07:40PM 20.8875 -85.8140 25° Northeast  Level Estimated
07:41PM 20.9975 -85.7598 25° Northeast  Level Estimated
07:42PM 21.1075 -85.7055 25° Northeast  Level Estimated
07:43PM 21.2175 -85.6512 25° Northeast  Level Estimated
07:44PM 21.3274 -85.5967 25° Northeast  Level Estimated
07:45PM 21.4374 -85.5422 25° Northeast  Level Estimated
07:46PM 21.5473 -85.4875 25° Northeast  Level Estimated
07:47PM 21.6572 -85.4328 25° Northeast  Level Estimated
07:48PM 21.7671 -85.3780 25° Northeast  Level Estimated
07:49PM 21.8770 -85.3231 25° Northeast  Level Estimated
07:50PM 21.9869 -85.2682 25° Northeast  Level Estimated
07:51PM 22.0967 -85.2131 25° Northeast  Level Estimated
07:52PM 22.2065 -85.1580 25° Northeast  Level Estimated
07:53PM 22.3163 -85.1028 25° Northeast  Level Estimated
07:54PM 22.4261 -85.0475 25° Northeast  Level Estimated
07:55PM 22.5359 -84.9921 25° Northeast  Level Estimated
07:56PM 22.6456 -84.9366 25° Northeast  Level Estimated
07:57PM 22.7554 -84.8810 25° Northeast  Level Estimated
07:58PM 22.8651 -84.8254 25° Northeast  Level Estimated
07:59PM 22.9748 -84.7696 25° Northeast  Level Estimated
08:00PM 23.0844 -84.7138 25° Northeast  Level Estimated
08:01PM 23.1941 -84.6579 25° Northeast  Level Estimated
08:02PM 23.3037 -84.6018 25° Northeast  Level Estimated
08:02PM 24.0344 -85.9650 25° Northeast 261 300 32,900  Level Houston Center
08:03PM 23.4133 -84.5457 25° Northeast  Level Estimated
08:03PM 24.1658 -85.9367 11° North 461 531 32,900  Level Houston Center
08:04PM 23.5229 -84.4895 25° Northeast  Level Estimated
08:04PM 24.2861 -85.9056 13° North 454 522 32,900  Level Houston Center
08:05PM 23.6331 -84.4329 25° Northeast  Level Estimated
08:05PM 24.4019 -85.8344 29° Northeast 471 542 33,000  Level Houston Center
08:06PM 23.7432 -84.3762 25° Northeast  Level Estimated
08:06PM 24.5181 -85.7589 31° Northeast 475 547 33,000  Level Houston Center
08:07PM 23.8533 -84.3194 25° Northeast  Level Estimated
08:07PM 24.6347 -85.6822 31° Northeast 483 556 33,000  Level Houston Center
08:08PM 24.7789 -85.5903 30° Northeast 488 562 33,000  Level Houston Center
08:09PM 24.8950 -85.5150 30° Northeast 488 562 33,000 -60 Level Houston Center
08:10PM 25.0144 -85.4364 31° Northeast 490 564 32,900 -60 Descending Houston Center
08:11PM 25.1239 -85.3600 32° Northeast 485 558 32,900  Level Houston Center
08:12PM 25.2439 -85.2842 30° Northeast 490 564 32,900  Level Houston Center
08:13PM 25.3583 -85.2075 31° Northeast 495 570 32,900  Level Miami Center
08:14PM 25.4708 -85.1372 29° Northeast 516 594 33,000  Climbing Miami Center
08:15PM 25.5869 -85.0717 27° Northeast 501 577 32,900 -60 Descending Miami Center
08:16PM 25.7069 -85.0153 23° Northeast 480 552 32,900  Level Miami Center
08:17PM 25.8233 -84.9494 27° Northeast 478 550 32,900  Level Miami Center
08:18PM 25.9533 -84.8961 20° North 468 539 32,900  Level Miami Center
08:19PM 26.0756 -84.8350 24° Northeast 468 539 33,000  Climbing Miami Center
08:20PM 26.1936 -84.7714 26° Northeast 473 544 33,000  Level Miami Center
08:21PM 26.3178 -84.7125 23° Northeast 473 544 33,000 -60 Level Miami Center
08:22PM 26.4397 -84.6536 23° Northeast 468 539 32,900 -60 Descending Miami Center
08:23PM 26.5517 -84.5914 26° Northeast 463 533 32,900  Level Miami Center
08:30PM 27.3330 -84.2070 26° Northeast 474 545 33,000  Climbing FlightAware
08:30PM 27.4300 -84.1580 24° Northeast 478 550 33,000 60 Level FlightAware
08:31PM 27.5320 -84.1060 24° Northeast 478 550 33,100  Climbing FlightAware
08:32PM 27.6130 -84.0660 24° Northeast 479 551 33,000 -120 Descending FlightAware
08:33PM 27.6930 -84.0250 24° Northeast 479 551 33,000  Level FlightAware
08:33PM 27.7860 -83.9780 24° Northeast 476 548 33,000  Level FlightAware
08:34PM 27.8670 -83.9370 24° Northeast 475 547 33,000  Level FlightAware
08:35PM 27.9670 -83.8850 25° Northeast 474 545 33,000 -60 Level FlightAware
08:36PM 28.0590 -83.8390 24° Northeast 474 545 32,900 -120 Descending FlightAware
08:36PM 28.1070 -83.8140 25° Northeast 475 547 32,900 60 Level FlightAware
08:37PM 28.2080 -83.7620 24° Northeast 477 549 33,000 60 Climbing FlightAware
08:37PM 28.2850 -83.7220 25° Northeast 480 552 33,000  Level FlightAware
08:38PM 28.3770 -83.6750 24° Northeast 483 556 33,000  Level FlightAware
08:39PM 28.4600 -83.6320 24° Northeast 484 557 33,000 300 Level FlightAware
08:40PM 28.5640 -83.5780 25° Northeast 475 547 33,500 600 Climbing FlightAware
08:40PM 28.6460 -83.5360 24° Northeast 479 551 34,000 300 Climbing FlightAware
08:41PM 28.7370 -83.4890 24° Northeast 481 554 34,000  Level FlightAware
08:42PM 28.8190 -83.4460 25° Northeast 482 555 34,000  Level FlightAware
08:43PM 28.9080 -83.3990 25° Northeast 476 548 34,000  Level FlightAware
08:43PM 28.9890 -83.3570 24° Northeast 476 548 34,000  Level FlightAware
08:44PM 29.0730 -83.3130 25° Northeast 477 549 34,000  Level FlightAware
08:45PM 29.1640 -83.2660 24° Northeast 478 550 34,000  Level FlightAware
08:45PM 29.2470 -83.2220 25° Northeast 479 551 34,000  Level FlightAware
08:46PM 29.3400 -83.1730 25° Northeast 478 550 34,000  Level FlightAware
08:47PM 29.4240 -83.1290 25° Northeast 478 550 34,000  Level FlightAware
08:48PM 29.5130 -83.0830 24° Northeast 477 549 34,000  Level FlightAware
08:48PM 29.5790 -83.0470 25° Northeast 477 549 34,000  Level FlightAware
08:49PM 29.6470 -83.0110 25° Northeast 477 549 34,000  Level FlightAware
08:50PM 29.7770 -82.9420 25° Northeast 476 548 34,000  Level FlightAware
08:51PM 29.8920 -82.8810 25° Northeast 477 549 34,000  Level FlightAware
08:51PM 29.9600 -82.8450 25° Northeast 477 549 34,000  Level FlightAware
08:52PM 30.0450 -82.7990 25° Northeast 477 549 34,000  Level FlightAware
08:53PM 30.1130 -82.7620 25° Northeast 477 549 34,000  Level FlightAware
08:54PM 30.1810 -82.7260 25° Northeast 477 549 34,000  Level FlightAware
08:54PM 30.2490 -82.6890 25° Northeast 477 549 34,000  Level FlightAware
08:55PM 30.3170 -82.6520 25° Northeast 477 549 34,000  Level FlightAware
08:56PM 30.3850 -82.6150 25° Northeast 477 549 34,000  Level FlightAware
08:56PM 30.4700 -82.5690 25° Northeast 477 549 34,000  Level FlightAware
08:57PM 30.5380 -82.5330 25° Northeast 477 549 34,000  Level FlightAware
08:58PM 30.6060 -82.4960 25° Northeast 477 549 34,000  Level FlightAware
08:58PM 30.6740 -82.4590 25° Northeast 477 549 34,000  Level FlightAware
08:59PM 30.7590 -82.4130 25° Northeast 477 549 34,000  Level FlightAware
09:00PM 30.8270 -82.3760 25° Northeast 477 549 34,000 -960 Level FlightAware
09:00PM 30.9822 -82.0686 25° Northeast 484 557 32,900 -720 Descending Jacksonville Center
09:01PM 31.0836 -81.9636 42° Northeast 479 551 33,000  Climbing Jacksonville Center
09:02PM 31.1831 -81.8581 42° Northeast 479 551 33,000 -60 Level Jacksonville Center
09:03PM 31.2867 -81.7547 40° Northeast 479 551 32,900  Descending Jacksonville Center
09:04PM 31.3983 -81.6367 42° Northeast 479 551 33,000  Climbing Jacksonville Center
09:05PM 31.4975 -81.5306 42° Northeast 489 563 33,000  Level Jacksonville Center
09:06PM 31.5922 -81.4317 42° Northeast 489 563 33,000  Level Jacksonville Center
09:12PM 32.1510 -80.8400 42° Northeast 493 567 33,000  Level FlightAware
09:12PM 32.2210 -80.7660 42° Northeast 492 566 33,000  Level FlightAware
09:13PM 32.2830 -80.6990 42° Northeast 492 566 33,000  Level FlightAware
09:14PM 32.3670 -80.6090 42° Northeast 491 565 33,000  Level FlightAware
09:15PM 32.4340 -80.5370 42° Northeast 490 564 33,000  Level FlightAware
09:15PM 32.5100 -80.4550 42° Northeast 489 563 33,000  Level FlightAware
09:16PM 32.5770 -80.3830 42° Northeast 487 560 33,000  Level FlightAware
09:17PM 32.6440 -80.3100 43° Northeast 485 558 33,000  Level FlightAware
09:17PM 32.7180 -80.2300 42° Northeast 484 557 33,000  Level FlightAware
09:18PM 32.7840 -80.1580 43° Northeast 484 557 33,000  Level FlightAware
09:19PM 32.8580 -80.0780 42° Northeast 483 556 33,000  Level FlightAware
09:19PM 32.9240 -80.0090 41° Northeast 480 552 33,000  Level FlightAware
09:20PM 32.9950 -79.9410 39° Northeast 479 551 33,000  Level FlightAware
09:21PM 33.0700 -79.8680 39° Northeast 479 551 33,000  Level FlightAware
09:22PM 33.1410 -79.7990 39° Northeast 481 554 33,000  Level FlightAware
09:22PM 33.2190 -79.7240 39° Northeast 481 554 33,000  Level FlightAware
09:23PM 33.2860 -79.6580 39° Northeast 482 555 33,000  Level FlightAware
09:24PM 33.3650 -79.5810 39° Northeast 483 556 33,000  Level FlightAware
09:24PM 33.4350 -79.5130 39° Northeast 483 556 33,000  Level FlightAware
09:25PM 33.5000 -79.4500 39° Northeast 482 555 33,000  Level FlightAware
09:26PM 33.5820 -79.3690 39° Northeast 481 554 33,000  Level FlightAware
09:26PM 33.6500 -79.3020 39° Northeast 480 552 33,000  Level FlightAware
09:27PM 33.7250 -79.2280 39° Northeast 478 550 33,000  Level FlightAware
09:28PM 33.7940 -79.1590 40° Northeast 478 550 33,000  Level FlightAware
09:29PM 33.8620 -79.0920 39° Northeast 477 549 33,000  Level FlightAware
09:29PM 33.9390 -79.0160 39° Northeast 479 551 33,000  Level FlightAware
09:30PM 34.0070 -78.9490 39° Northeast 480 552 33,000  Level FlightAware
09:31PM 34.0840 -78.8710 40° Northeast 480 552 33,000  Level FlightAware
09:31PM 34.1540 -78.8020 39° Northeast 478 550 33,000  Level FlightAware
09:32PM 34.2200 -78.7350 40° Northeast 477 549 33,000  Level FlightAware
09:33PM 34.2940 -78.6600 40° Northeast 475 547 33,000  Level FlightAware
09:34PM 34.3730 -78.5810 40° Northeast 474 545 33,000  Level FlightAware
09:34PM 34.4580 -78.4960 39° Northeast 472 543 33,000  Level FlightAware
09:35PM 34.5450 -78.4070 40° Northeast 472 543 33,000  Level FlightAware
09:36PM 34.6020 -78.3490 40° Northeast 472 543 33,000  Level FlightAware
09:37PM 34.6590 -78.2910 40° Northeast 472 543 33,000 -60 Level FlightAware
09:37PM 34.5070 -78.4460 220° Southwest 33,000 -120 Level FlightAware
09:38PM 34.8167 -78.1369 220° Southwest 467 537 32,900  Descending Washington Center
09:39PM 34.9042 -78.0383 43° Northeast 467 537 33,000  Climbing Washington Center
09:40PM 35.0042 -77.9375 40° Northeast 467 537 33,000  Level Washington Center
09:41PM 35.1064 -77.8314 40° Northeast 467 537 33,000  Level Washington Center
09:42PM 35.2044 -77.7297 40° Northeast 467 537 33,000  Level Washington Center
09:48PM 35.7930 -77.1890 40° Northeast 452 520 33,000  Level FlightAware
09:48PM 35.8410 -77.1460 36° Northeast 454 522 33,000  Level FlightAware
09:49PM 35.9120 -77.0840 35° Northeast 454 522 33,000  Level FlightAware
09:50PM 35.9850 -77.0210 35° Northeast 454 522 33,000  Level FlightAware
09:50PM 36.0440 -76.9700 35° Northeast 454 522 33,000  Level FlightAware
09:51PM 36.1020 -76.9200 35° Northeast 454 522 33,000  Level FlightAware
09:52PM 36.1610 -76.8690 35° Northeast 454 522 33,000  Level FlightAware
09:53PM 36.2340 -76.8060 35° Northeast 454 522 33,000  Level FlightAware
09:53PM 36.2920 -76.7550 35° Northeast 454 522 33,000  Level FlightAware
09:54PM 36.3360 -76.7170 35° Northeast 454 522 33,000  Level FlightAware
09:54PM 36.3950 -76.6660 35° Northeast 454 522 33,000  Level FlightAware
09:55PM 36.4530 -76.6150 35° Northeast 454 522 33,000  Level FlightAware
09:56PM 36.5120 -76.5640 35° Northeast 454 522 33,000  Level FlightAware
09:56PM 36.5700 -76.5130 35° Northeast 454 522 33,000  Level FlightAware
09:57PM 36.6430 -76.4490 35° Northeast 454 522 33,000  Level FlightAware
09:58PM 36.8270 -76.3170 30° Northeast 434 499 33,000  Level FlightAware
09:59PM 36.8870 -76.2770 28° Northeast 434 499 33,000  Level FlightAware
09:59PM 36.9512 -76.2323 29° Northeast 438 504 33,000 120 Level FlightAware ADS-B
09:59PM 37.0044 -76.1957 29° Northeast 438 504 33,100  Climbing FlightAware ADS-B
10:00PM 37.0629 -76.1557 29° Northeast 435 501 33,000 -120 Descending FlightAware ADS-B
10:00PM 37.1226 -76.1144 29° Northeast 433 498 33,000  Level FlightAware ADS-B
10:01PM 37.1765 -76.0774 29° Northeast 431 496 33,000  Level FlightAware ADS-B
10:01PM 37.2289 -76.0414 29° Northeast 430 495 33,000  Level FlightAware ADS-B
10:02PM 37.2832 -76.0051 28° Northeast 428 493 33,000  Level FlightAware ADS-B
10:03PM 37.3396 -75.9693 27° Northeast 426 490 33,000  Level FlightAware ADS-B
10:03PM 37.3940 -75.9345 27° Northeast 424 488 33,000  Level FlightAware ADS-B
10:04PM 37.4467 -75.9001 27° Northeast 423 487 33,000  Level FlightAware ADS-B
10:04PM 37.4994 -75.8657 27° Northeast 422 486 33,000  Level FlightAware ADS-B
10:05PM 37.5532 -75.8304 27° Northeast 423 487 33,000  Level FlightAware ADS-B
10:05PM 37.6100 -75.7933 27° Northeast 421 484 33,000  Level FlightAware ADS-B
10:06PM 37.6570 -75.7630 27° Northeast 421 484 33,000  Level FlightAware
10:06PM 37.7251 -75.7181 28° Northeast 420 483 33,000  Level FlightAware ADS-B
10:07PM 37.7763 -75.6846 27° Northeast 422 486 33,000  Level FlightAware ADS-B
10:07PM 37.8317 -75.6482 27° Northeast 429 494 33,000  Level FlightAware ADS-B
10:08PM 37.8855 -75.6128 27° Northeast 432 497 33,000  Level FlightAware ADS-B
10:08PM 37.9397 -75.5770 28° Northeast 427 491 33,000  Level FlightAware ADS-B
10:09PM 37.9954 -75.5401 28° Northeast 426 490 33,000  Level FlightAware ADS-B
10:09PM 38.0488 -75.5049 27° Northeast 425 489 33,000  Level FlightAware ADS-B
10:10PM 38.0930 -75.4750 28° Northeast 424 488 33,000  Level FlightAware
10:10PM 38.1350 -75.4478 27° Northeast 424 488 33,000  Level FlightAware ADS-B
10:11PM 38.1911 -75.4103 28° Northeast 424 488 33,000  Level FlightAware ADS-B
10:11PM 38.2461 -75.3732 28° Northeast 424 488 33,000  Level FlightAware ADS-B
10:12PM 38.2989 -75.3381 28° Northeast 423 487 33,000  Level FlightAware ADS-B
10:12PM 38.3557 -75.3007 27° Northeast 423 487 33,000  Level FlightAware ADS-B
10:13PM 38.4337 -75.2487 28° Northeast 421 484 33,000  Level FlightAware ADS-B
10:14PM 38.4906 -75.2105 28° Northeast 421 484 33,000  Level FlightAware ADS-B
10:14PM 38.5423 -75.1758 28° Northeast 421 484 33,000  Level FlightAware ADS-B
10:15PM 38.5956 -75.1398 28° Northeast 421 484 33,000  Level FlightAware ADS-B
10:15PM 38.6635 -75.0941 28° Northeast 420 483 33,000  Level FlightAware ADS-B
10:16PM 38.7152 -75.0592 28° Northeast 418 481 33,000  Level FlightAware ADS-B
10:16PM 38.7698 -75.0222 28° Northeast 416 479 33,000  Level FlightAware ADS-B
10:17PM 38.8445 -74.9715 28° Northeast 416 479 33,000  Level FlightAware ADS-B
10:17PM 38.8954 -74.9369 28° Northeast 415 478 33,000  Level FlightAware ADS-B
10:18PM 38.9475 -74.9014 28° Northeast 416 479 33,000 -300 Level FlightAware ADS-B
10:19PM 38.9993 -74.8660 28° Northeast 416 479 32,700 -840 Descending FlightAware ADS-B
10:19PM 39.0508 -74.8307 28° Northeast 415 478 32,200 -960 Descending FlightAware ADS-B
10:19PM 39.0848 -74.8072 28° Northeast 417 480 31,900 -960 Descending FlightAware ADS-B
10:20PM 39.1043 -74.7906 33° Northeast 418 481 31,700 -1,020 Descending FlightAware ADS-B
10:20PM 39.1480 -74.7435 40° Northeast 420 483 31,200 -1,020 Descending FlightAware ADS-B
10:21PM 39.1935 -74.6946 40° Northeast 421 484 30,700 -1,500 Descending FlightAware ADS-B
10:21PM 39.2390 -74.6454 40° Northeast 425 489 29,700 -2,760 Descending FlightAware ADS-B
10:22PM 39.2856 -74.5948 40° Northeast 432 497 27,900 -3,720 Descending FlightAware ADS-B
10:22PM 39.3382 -74.5378 40° Northeast 439 505 25,700 -3,420 Descending FlightAware ADS-B
10:23PM 39.3872 -74.4847 40° Northeast 433 498 24,200 -2,940 Descending FlightAware ADS-B
10:23PM 39.4338 -74.4339 40° Northeast 426 490 22,700 -2,880 Descending FlightAware ADS-B
10:24PM 39.4797 -74.3839 40° Northeast 419 482 21,300 -2,760 Descending FlightAware ADS-B
10:24PM 39.5247 -74.3347 40° Northeast 414 476 19,900 -2,880 Descending FlightAware ADS-B
10:25PM 39.5718 -74.2830 40° Northeast 407 468 18,300 -2,700 Descending FlightAware ADS-B
10:25PM 39.6152 -74.2353 40° Northeast 398 458 17,100 -2,100 Descending FlightAware ADS-B
10:26PM 39.6578 -74.1883 40° Northeast 396 456 16,200 -1,620 Descending FlightAware ADS-B
10:26PM 39.7008 -74.1408 40° Northeast 391 450 15,500 -1,380 Descending FlightAware ADS-B
10:27PM 39.7421 -74.0953 40° Northeast 390 449 14,800 -1,500 Descending FlightAware ADS-B
10:27PM 39.7837 -74.0496 40° Northeast 384 442 14,000 -1,380 Descending FlightAware ADS-B
10:28PM 39.8233 -74.0058 40° Northeast 364 419 13,400 -1,320 Descending FlightAware ADS-B
10:28PM 39.8492 -73.9804 37° Northeast 351 404 12,900 -1,320 Descending FlightAware ADS-B
10:28PM 39.8658 -73.9684 29° Northeast 343 395 12,700 -1,200 Descending FlightAware ADS-B
10:29PM 39.9069 -73.9396 28° Northeast 326 375 12,100 -1,200 Descending FlightAware ADS-B
10:29PM 39.9461 -73.9117 29° Northeast 312 359 11,500 -1,200 Descending FlightAware ADS-B
10:30PM 39.9647 -73.8986 28° Northeast 304 350 11,200 -960 Descending FlightAware ADS-B
10:30PM 40.0013 -73.8744 27° Northeast 288 331 10,800 -660 Descending FlightAware ADS-B
10:31PM 40.0404 -73.8482 27° Northeast 283 326 10,500 -480 Descending FlightAware ADS-B
10:31PM 40.0765 -73.8239 27° Northeast 282 325 10,300 -840 Descending FlightAware ADS-B
10:31PM 40.0941 -73.8120 27° Northeast 280 322 9,900 -1,500 Descending FlightAware ADS-B
10:32PM 40.1130 -73.7994 27° Northeast 281 323 9,500 -1,500 Descending FlightAware ADS-B
10:32PM 40.1304 -73.7880 27° Northeast 281 323 9,100 -1,680 Descending FlightAware ADS-B
10:32PM 40.1471 -73.7774 26° Northeast 279 321 8,700 -1,620 Descending FlightAware ADS-B
10:32PM 40.1536 -73.7741 21° North 279 321 8,600 -1,200 Descending FlightAware ADS-B
10:32PM 40.1593 -73.7724 13° North 280 322 8,500 -1,380 Descending FlightAware ADS-B
10:32PM 40.1648 -73.7716 North 281 323 8,400 -1,740 Descending FlightAware ADS-B
10:32PM 40.1687 -73.7717 359° North 281 323 8,300 -1,500 Descending FlightAware ADS-B
10:33PM 40.1752 -73.7728 353° North 281 323 8,200 -1,500 Descending FlightAware ADS-B
10:33PM 40.1792 -73.7741 346° North 282 325 8,100 -1,740 Descending FlightAware ADS-B
10:33PM 40.1831 -73.7759 341° North 282 325 8,000 -1,500 Descending FlightAware ADS-B
10:33PM 40.1883 -73.7792 334° Northwest 284 327 7,900 -1,740 Descending FlightAware ADS-B
10:33PM 40.1920 -73.7821 329° Northwest 283 326 7,800 -1,500 Descending FlightAware ADS-B
10:33PM 40.2099 -73.7981 326° Northwest 282 325 7,400 -1,500 Descending FlightAware ADS-B
10:33PM 40.2269 -73.8138 325° Northwest 283 326 7,000 -1,680 Descending FlightAware ADS-B
10:34PM 40.2449 -73.8305 325° Northwest 285 328 6,500 -1,800 Descending FlightAware ADS-B
10:34PM 40.2634 -73.8481 324° Northwest 285 328 6,000 -1,740 Descending FlightAware ADS-B
10:34PM 40.2792 -73.8633 324° Northwest 285 328 5,600 -1,560 Descending FlightAware ADS-B
10:34PM 40.2959 -73.8796 323° Northwest 285 328 5,200 -1,320 Descending FlightAware ADS-B
10:35PM 40.3129 -73.8962 323° Northwest 280 322 4,900 -1,020 Descending FlightAware ADS-B
10:35PM 40.3286 -73.9116 323° Northwest 275 316 4,700 -1,200 Descending FlightAware ADS-B
10:35PM 40.3441 -73.9271 323° Northwest 272 313 4,300 -1,440 Descending FlightAware ADS-B
10:35PM 40.3500 -73.9324 326° Northwest 266 306 4,200 -1,380 Descending FlightAware ADS-B
10:35PM 40.3545 -73.9354 333° Northwest 267 307 4,100 -1,740 Descending FlightAware ADS-B
10:35PM 40.3581 -73.9372 339° North 264 304 4,000 -1,740 Descending FlightAware ADS-B
10:35PM 40.3616 -73.9384 345° North 262 302 3,900 -1,140 Descending FlightAware ADS-B
10:36PM 40.3700 -73.9406 349° North 256 295 3,800 -1,380 Descending FlightAware ADS-B
10:36PM 40.3880 -73.9437 353° North 254 292 3,400 -1,680 Descending FlightAware ADS-B
10:36PM 40.3918 -73.9437 360° North 252 290 3,300 -1,680 Descending FlightAware ADS-B
10:36PM 40.3998 -73.9421 North 247 284 3,100 -1,860 Descending FlightAware ADS-B
10:36PM 40.4061 -73.9393 19° North 244 281 2,900 -2,040 Descending FlightAware ADS-B
10:36PM 40.4100 -73.9369 25° Northeast 242 278 2,800 -1,620 Descending FlightAware ADS-B
10:36PM 40.4240 -73.9265 29° Northeast 239 275 2,400 -1,620 Descending FlightAware ADS-B